Time;durP1;ratioP1;P1;durP2;ratioP2;P2;SDS_P1;SDS_P2;PMS_P1;PMS_P2;Temp;Humidity;BMP_temperature;BMP_pressure;BME280_temperature;BME280_humidity;BME280_pressure;Samples;Min_cycle;Max_cycle;Signal;HPM_P1;HPM_P2
2022/02/05 00:00:34;;;;;;;16.80;2.50;;;;;;;1.63;100.00;99880.06;7397510;19;20232;-49
2022/02/05 00:03:17;;;;;;;7.20;1.83;;;;;;;1.57;100.00;99900.03;7394097;19;20200;-49
2022/02/05 00:05:52;;;;;;;10.88;1.20;;;;;;;1.60;100.00;99890.06;7398562;19;20912;-50
2022/02/05 00:08:37;;;;;;;6.93;1.20;;;;;;;1.53;100.00;99888.78;7393229;19;20944;-52
2022/02/05 00:38:53;;;;;;;5.25;1.50;;;;;;;1.42;100.00;99915.16;7394278;19;20451;-55
2022/02/05 00:41:26;;;;;;;3.72;1.27;;;;;;;1.43;100.00;99920.38;7395892;19;20169;-50
2022/02/05 00:43:58;;;;;;;5.55;1.33;;;;;;;1.45;100.00;99921.34;7393276;19;20547;-52
2022/02/05 00:46:32;;;;;;;1.80;0.83;;;;;;;1.47;100.00;99932.50;7398001;19;20143;-52
2022/02/05 00:49:05;;;;;;;17.87;1.73;;;;;;;1.49;100.00;99947.88;7393089;19;20539;-49
2022/02/05 00:51:39;;;;;;;3.60;1.30;;;;;;;1.54;100.00;99938.84;7395983;19;20429;-50
2022/02/05 00:54:12;;;;;;;4.55;1.10;;;;;;;1.52;100.00;99958.22;7393661;19;20199;-47
2022/02/05 00:57:17;;;;;;;8.75;1.38;;;;;;;1.44;100.00;99955.16;7396724;19;20530;-49
2022/02/05 00:59:41;;;;;;;3.88;0.85;;;;;;;1.37;100.00;99960.63;7395708;19;20191;-51
2022/02/05 01:02:11;;;;;;;7.10;1.10;;;;;;;1.26;100.00;99966.66;7392140;19;20164;-56
2022/02/05 01:04:43;;;;;;;3.70;0.93;;;;;;;1.08;100.00;99972.31;7395760;19;20476;-50
2022/02/05 01:07:12;;;;;;;11.05;1.70;;;;;;;1.09;100.00;99976.59;7393171;19;20588;-53
2022/02/05 01:09:44;;;;;;;3.35;1.63;;;;;;;1.09;100.00;99976.59;7396131;19;20121;-55
2022/02/05 01:12:14;;;;;;;5.53;1.40;;;;;;;1.02;100.00;99979.50;7387995;19;20179;-52
2022/02/05 01:14:50;;;;;;;6.55;1.40;;;;;;;0.94;100.00;99977.31;7397197;19;20136;-49
2022/02/05 01:17:26;;;;;;;2.20;1.25;;;;;;;0.94;100.00;99986.59;7390564;19;20198;-56
2022/02/05 01:20:22;;;;;;;3.53;1.05;;;;;;;1.00;100.00;100002.28;7392668;19;20145;-51
2022/02/05 01:22:52;;;;;;;7.90;1.67;;;;;;;1.04;100.00;100016.94;7390245;19;20200;-52
2022/02/05 01:25:27;;;;;;;5.13;1.33;;;;;;;1.00;100.00;100012.44;7394057;19;20591;-55
2022/02/05 01:28:01;;;;;;;2.63;1.52;;;;;;;1.08;100.00;100033.28;7389199;19;20194;-50
2022/02/05 01:30:34;;;;;;;7.75;3.20;;;;;;;1.06;100.00;100024.66;7396960;19;20167;-53
2022/02/05 01:33:18;;;;;;;7.63;2.08;;;;;;;1.09;100.00;100037.59;7399516;19;20662;-51
2022/02/05 01:36:06;;;;;;;7.93;1.90;;;;;;;1.05;100.00;100036.50;7400873;19;20133;-52
2022/02/05 01:52:23;;;;;;;6.25;2.17;;;;;;;0.90;100.00;100059.19;7393372;19;20157;-53
2022/02/05 01:55:08;;;;;;;4.50;1.10;;;;;;;0.85;100.00;100068.16;7399943;19;20128;-55
2022/02/05 01:57:51;;;;;;;10.30;2.53;;;;;;;0.89;100.00;100067.59;7399796;19;20202;-56
2022/02/05 02:05:53;;;;;;;6.68;2.70;;;;;;;1.02;100.00;100055.75;7395463;19;20132;-54
2022/02/05 02:14:32;;;;;;;6.45;2.05;;;;;;;0.98;100.00;100061.38;7389594;19;20222;-50
2022/02/05 02:19:58;;;;;;;11.98;1.77;;;;;;;1.05;100.00;100053.41;7402464;19;20135;-51
2022/02/05 02:22:32;;;;;;;2.83;1.52;;;;;;;1.03;100.00;100048.19;7396348;19;20669;-54
2022/02/05 02:25:08;;;;;;;3.65;1.73;;;;;;;1.06;100.00;100047.53;7397389;19;20130;-52
2022/02/05 02:27:43;;;;;;;8.02;1.83;;;;;;;1.12;100.00;100042.88;7392394;19;20199;-55
2022/02/05 02:30:17;;;;;;;3.63;1.35;;;;;;;1.13;100.00;100031.91;7397621;19;20490;-52
2022/02/05 02:32:51;;;;;;;5.03;1.20;;;;;;;1.16;100.00;100044.84;7396033;19;20196;-56
2022/02/05 02:35:25;;;;;;;6.45;1.50;;;;;;;1.12;100.00;100027.63;7398204;19;20127;-55
2022/02/05 02:38:01;;;;;;;2.75;0.98;;;;;;;1.14;100.00;100028.63;7395735;19;20191;-55
2022/02/05 02:40:40;;;;;;;4.53;0.93;;;;;;;1.17;100.00;100036.44;7396603;19;20432;-53
2022/02/05 02:43:15;;;;;;;7.35;1.42;;;;;;;1.15;100.00;100030.38;7395563;19;20187;-57
2022/02/05 02:45:46;;;;;;;2.30;0.80;;;;;;;1.14;100.00;100038.78;7396808;19;20141;-54
2022/02/05 02:48:16;;;;;;;4.82;1.02;;;;;;;1.14;100.00;100037.91;7394752;19;20195;-53
2022/02/05 02:56:43;;;;;;;5.63;1.15;;;;;;;1.20;100.00;100069.72;7397902;19;20471;-56
2022/02/05 02:59:25;;;;;;;4.55;1.27;;;;;;;1.18;100.00;100073.78;7389538;19;20193;-54
2022/02/05 03:01:59;;;;;;;7.72;2.50;;;;;;;1.26;100.00;100081.03;7395136;19;20161;-55
2022/02/05 03:04:30;;;;;;;9.85;2.38;;;;;;;1.28;100.00;100104.94;7396868;19;20192;-58
2022/02/05 03:06:59;;;;;;;7.63;1.80;;;;;;;1.16;100.00;100110.03;7395166;19;20139;-57
2022/02/05 03:09:33;;;;;;;11.38;1.58;;;;;;;0.94;100.00;100117.03;7396904;19;20134;-57
2022/02/05 03:12:02;;;;;;;3.25;1.42;;;;;;;0.72;100.00;100119.72;7392049;19;20165;-58
2022/02/05 03:14:32;;;;;;;4.13;1.17;;;;;;;0.55;100.00;100137.97;7397083;19;20811;-58
2022/02/05 03:17:14;;;;;;;7.55;1.40;;;;;;;0.46;100.00;100138.19;7394558;19;20132;-55
2022/02/05 03:19:44;;;;;;;1.95;0.85;;;;;;;0.43;100.00;100154.06;7396693;19;20678;-57
2022/02/05 03:22:14;;;;;;;1.65;0.73;;;;;;;0.24;100.00;100178.09;7393994;19;20518;-58
2022/02/05 03:24:46;;;;;;;2.03;0.80;;;;;;;0.01;100.00;100186.53;7396654;19;20128;-56
2022/02/05 03:27:17;;;;;;;3.33;1.30;;;;;;;-0.11;100.00;100175.47;7397005;19;20251;-55
2022/02/05 03:29:49;;;;;;;6.97;1.02;;;;;;;-0.18;100.00;100181.72;7395542;19;20131;-55
2022/02/05 03:32:19;;;;;;;4.50;1.15;;;;;;;-0.20;100.00;100165.53;7392180;19;20206;-59
2022/02/05 03:34:49;;;;;;;2.63;0.90;;;;;;;-0.19;100.00;100170.72;7396922;19;20146;-57
2022/02/05 03:37:20;;;;;;;2.58;0.90;;;;;;;-0.13;100.00;100175.34;7393750;19;20990;-55
2022/02/05 03:39:52;;;;;;;6.70;1.02;;;;;;;-0.12;100.00;100169.50;7396245;19;20133;-57
2022/02/05 03:42:22;;;;;;;3.55;0.82;;;;;;;-0.12;100.00;100171.19;7391742;19;20201;-53
2022/02/05 03:44:51;;;;;;;5.50;1.40;;;;;;;-0.16;100.00;100175.09;7396267;19;20130;-53
2022/02/05 03:47:21;;;;;;;3.00;0.75;;;;;;;-0.16;100.00;100186.16;7394369;19;20190;-57
2022/02/05 03:49:51;;;;;;;1.40;0.60;;;;;;;-0.16;100.00;100180.19;7396776;19;20162;-56
2022/02/05 03:52:21;;;;;;;3.05;0.65;;;;;;;-0.10;100.00;100184.84;7393134;19;20202;-56
2022/02/05 03:54:53;;;;;;;2.88;1.27;;;;;;;-0.10;100.00;100177.25;7399166;19;20583;-59
2022/02/05 03:57:22;;;;;;;5.88;1.70;;;;;;;-0.02;100.00;100178.69;7392925;19;20187;-56
2022/02/05 03:59:52;;;;;;;2.50;0.88;;;;;;;-0.04;100.00;100170.97;7399380;19;20127;-56
2022/02/05 04:02:21;;;;;;;5.65;1.38;;;;;;;-0.01;100.00;100180.47;7390489;19;20265;-55
2022/02/05 04:04:51;;;;;;;2.75;0.98;;;;;;;0.06;100.00;100176.75;7396223;19;20142;-59
2022/02/05 04:07:23;;;;;;;3.83;1.77;;;;;;;0.06;100.00;100172.53;7394503;19;20586;-57
2022/02/05 04:09:58;;;;;;;3.97;0.80;;;;;;;0.19;100.00;100168.38;7394415;19;20130;-56
2022/02/05 04:17:54;;;;;;;5.00;1.02;;;;;;;0.15;100.00;100162.19;7392038;19;20195;-57
2022/02/05 04:20:23;;;;;;;5.30;1.20;;;;;;;0.09;100.00;100169.34;7397356;19;20164;-57
2022/02/05 04:22:53;;;;;;;3.72;1.73;;;;;;;0.08;100.00;100171.00;7391125;19;20531;-54
2022/02/05 04:25:25;;;;;;;8.73;1.00;;;;;;;0.07;100.00;100174.31;7397886;19;20130;-58
2022/02/05 04:27:55;;;;;;;2.95;0.65;;;;;;;-0.01;100.00;100173.75;7391247;19;20546;-53
2022/02/05 04:30:24;;;;;;;6.45;1.17;;;;;;;0.05;100.00;100178.38;7393798;19;20163;-55
2022/02/05 04:32:54;;;;;;;4.20;1.25;;;;;;;0.02;100.00;100185.78;7390695;19;20221;-60
2022/02/05 04:35:25;;;;;;;4.32;1.00;;;;;;;0.00;100.00;100179.72;7397153;19;20140;-58
2022/02/05 04:37:57;;;;;;;5.00;1.25;;;;;;;0.04;100.00;100179.16;7391367;19;20195;-58
2022/02/05 04:40:33;;;;;;;2.75;0.77;;;;;;;-0.12;100.00;100184.72;7393707;19;20162;-57
2022/02/05 04:43:15;;;;;;;2.67;1.08;;;;;;;-0.15;100.00;100182.84;7390211;19;20190;-58
2022/02/05 04:48:49;;;;;;;1.30;0.70;;;;;;;-0.11;100.00;100178.88;7390068;19;20197;-57
2022/02/05 04:51:40;;;;;;;2.20;1.10;;;;;;;-0.12;100.00;100189.81;7392595;19;20155;-61
2022/02/05 04:57:03;;;;;;;4.35;1.48;;;;;;;-0.12;100.00;100201.63;7394258;19;20558;-58
2022/02/05 05:02:36;;;;;;;4.07;0.90;;;;;;;-0.14;100.00;100204.03;7386485;19;20506;-56
2022/02/05 05:05:19;;;;;;;2.70;1.40;;;;;;;-0.10;100.00;100210.22;7392011;19;20135;-57
2022/02/05 05:08:13;;;;;;;4.47;1.90;;;;;;;-0.14;100.00;100222.66;7390399;19;20657;-57
2022/02/05 05:11:09;;;;;;;8.88;1.25;;;;;;;-0.09;100.00;100220.47;7392719;19;20165;-59
2022/02/05 05:15:18;;;;;;;3.17;0.70;;;;;;;-0.09;100.00;100232.28;7390703;19;20194;-51
2022/02/05 05:21:58;;;;;;;6.38;1.65;;;;;;;-0.11;100.00;100234.69;7388509;19;20162;-57
2022/02/05 05:24:28;;;;;;;6.47;0.80;;;;;;;-0.01;100.00;100242.22;7393030;19;20141;-56
2022/02/05 05:26:57;;;;;;;4.32;1.98;;;;;;;-0.01;100.00;100238.81;7389094;19;20123;-59
2022/02/05 05:29:29;;;;;;;7.95;1.35;;;;;;;0.01;100.00;100244.91;7392606;19;20124;-56
2022/02/05 05:31:59;;;;;;;7.65;1.92;;;;;;;0.00;100.00;100235.53;7387909;19;20166;-55
2022/02/05 05:34:28;;;;;;;9.70;1.60;;;;;;;-0.07;100.00;100246.84;7392503;19;20473;-58
2022/02/05 05:37:00;;;;;;;8.20;1.52;;;;;;;-0.06;100.00;100251.13;7390405;19;20133;-55
2022/02/05 05:39:31;;;;;;;7.13;2.00;;;;;;;0.03;100.00;100253.50;7392532;19;20138;-59
2022/02/05 05:42:01;;;;;;;4.82;1.50;;;;;;;-0.04;100.00;100257.19;7389079;19;20173;-58
2022/02/05 05:47:33;;;;;;;6.03;1.35;;;;;;;-0.09;100.00;100267.78;7384827;19;20158;-56
2022/02/05 05:50:11;;;;;;;2.25;0.70;;;;;;;-0.10;100.00;100281.22;7392285;19;20134;-60
2022/02/05 05:52:40;;;;;;;8.35;1.10;;;;;;;-0.10;100.00;100281.22;7389421;19;20535;-59
2022/02/05 05:55:10;;;;;;;4.75;1.15;;;;;;;-0.12;100.00;100291.25;7392378;19;20124;-56
2022/02/05 05:57:40;;;;;;;9.18;1.02;;;;;;;-0.12;100.00;100296.31;7390156;19;20196;-57
2022/02/05 06:00:13;;;;;;;7.57;1.25;;;;;;;-0.12;100.00;100301.41;7391011;19;20131;-56
2022/02/05 06:02:43;;;;;;;9.95;1.40;;;;;;;-0.12;100.00;100303.06;7388466;19;20194;-58
2022/02/05 06:05:12;;;;;;;9.52;1.20;;;;;;;-0.11;100.00;100314.97;7392870;19;20127;-58
2022/02/05 06:07:42;;;;;;;5.18;0.75;;;;;;;-0.09;100.00;100323.56;7387489;19;20195;-56
2022/02/05 06:10:12;;;;;;;6.65;1.05;;;;;;;-0.10;100.00;100319.28;7391201;19;20136;-56
2022/02/05 06:12:41;;;;;;;12.23;1.17;;;;;;;-0.11;100.00;100332.72;7389414;19;20190;-56
2022/02/05 06:15:13;;;;;;;4.43;1.40;;;;;;;-0.12;100.00;100329.28;7395785;19;20138;-55
2022/02/05 06:17:43;;;;;;;6.80;1.40;;;;;;;-0.10;100.00;100331.97;7396194;19;20186;-59
2022/02/05 06:20:13;;;;;;;9.55;1.00;;;;;;;-0.10;100.00;100330.28;7400543;19;20696;-60
2022/02/05 06:22:43;;;;;;;7.20;0.95;;;;;;;-0.10;100.00;100339.56;7395899;19;20198;-56
2022/02/05 06:25:12;;;;;;;5.20;1.35;;;;;;;-0.09;100.00;100336.25;7398356;19;20493;-56
2022/02/05 06:27:42;;;;;;;7.20;1.55;;;;;;;-0.11;100.00;100351.34;7393277;19;20615;-60
2022/02/05 06:30:15;;;;;;;3.20;1.00;;;;;;;-0.13;100.00;100347.81;7397636;19;20129;-55
2022/02/05 06:32:44;;;;;;;3.60;1.00;;;;;;;-0.11;100.00;100355.56;7394735;19;20198;-55
2022/02/05 06:35:15;;;;;;;6.35;0.65;;;;;;;-0.13;100.00;100357.97;7397850;19;20466;-54
2022/02/05 06:37:46;;;;;;;3.80;0.90;;;;;;;-0.11;100.00;100353.03;7394777;19;20190;-53
2022/02/05 06:40:16;;;;;;;8.27;0.95;;;;;;;-0.15;100.00;100360.38;7396915;19;20642;-60
2022/02/05 06:42:48;;;;;;;2.15;0.70;;;;;;;-0.11;100.00;100370.78;7394928;19;20217;-54
2022/02/05 06:45:21;;;;;;;3.17;0.50;;;;;;;-0.11;100.00;100370.78;7398248;19;20127;-58
2022/02/05 06:47:51;;;;;;;3.60;0.77;;;;;;;-0.12;100.00;100372.41;7392752;19;20190;-58
2022/02/05 06:50:22;;;;;;;6.75;1.05;;;;;;;-0.11;100.00;100376.72;7396535;19;20598;-54
2022/02/05 06:52:51;;;;;;;5.13;1.45;;;;;;;-0.10;100.00;100373.41;7392151;19;20711;-54
2022/02/05 06:55:21;;;;;;;5.30;1.55;;;;;;;-0.11;100.00;100375.84;7398048;19;20465;-57
2022/02/05 06:57:50;;;;;;;10.82;1.38;;;;;;;-0.10;100.00;100377.63;7393852;19;20258;-54
2022/02/05 07:00:23;;;;;;;7.47;1.20;;;;;;;-0.10;100.00;100383.56;7395852;19;20171;-53
2022/02/05 07:02:53;;;;;;;2.53;0.77;;;;;;;-0.11;100.00;100388.53;7393053;19;20194;-60
2022/02/05 07:05:23;;;;;;;7.70;1.38;;;;;;;-0.10;100.00;100392.84;7397274;19;20135;-59
2022/02/05 07:07:52;;;;;;;5.13;1.40;;;;;;;-0.05;100.00;100391.56;7392730;19;20186;-56
2022/02/05 07:10:22;;;;;;;14.15;1.50;;;;;;;-0.04;100.00;100399.25;7396113;19;20165;-53
2022/02/05 07:13:11;;;;;;;12.77;1.60;;;;;;;0.01;100.00;100397.09;7392301;19;20196;-57
2022/02/05 07:15:50;;;;;;;2.22;0.60;;;;;;;-0.01;100.00;100396.06;7397171;19;20131;-58
2022/02/05 07:18:28;;;;;;;1.25;0.57;;;;;;;0.01;100.00;100402.19;7392558;19;20190;-58
2022/02/05 07:21:03;;;;;;;3.45;0.70;;;;;;;0.01;100.00;100406.34;7395757;19;20162;-59
2022/02/05 07:29:17;;;;;;;2.95;0.57;;;;;;;0.09;100.00;100413.81;7396381;19;20538;-57
2022/02/05 07:31:51;;;;;;;26.50;2.13;;;;;;;0.17;100.00;100413.50;7394539;19;20169;-57
2022/02/05 07:34:22;;;;;;;11.95;1.65;;;;;;;0.21;100.00;100413.00;7392625;19;20188;-58
2022/02/05 07:36:53;;;;;;;6.20;1.20;;;;;;;0.24;100.00;100428.44;7396820;19;20599;-56
2022/02/05 07:39:22;;;;;;;12.90;2.92;;;;;;;0.29;100.00;100429.69;7395537;19;20224;-57
2022/02/05 07:41:52;;;;;;;7.30;0.88;;;;;;;0.31;100.00;100423.06;7394223;19;20178;-59
2022/02/05 07:44:21;;;;;;;9.30;1.40;;;;;;;0.32;100.00;100432.50;7398547;19;20246;-53
2022/02/05 07:46:54;;;;;;;10.45;1.77;;;;;;;0.34;100.00;100422.44;7396079;19;20487;-58
2022/02/05 07:49:24;;;;;;;8.10;1.63;;;;;;;0.52;100.00;100433.13;7394914;19;20183;-56
2022/02/05 07:51:54;;;;;;;9.55;2.53;;;;;;;0.70;100.00;100435.28;7393891;19;20159;-56
2022/02/05 07:54:23;;;;;;;7.18;1.88;;;;;;;0.61;100.00;100432.97;7394178;19;20855;-60
2022/02/05 07:56:58;;;;;;;10.80;2.40;;;;;;;0.67;100.00;100441.91;7393044;19;20130;-58
2022/02/05 07:59:28;;;;;;;10.77;1.88;;;;;;;0.62;100.00;100442.34;7399702;19;20128;-57
2022/02/05 08:02:00;;;;;;;8.70;2.22;;;;;;;0.72;100.00;100441.41;7389872;19;20161;-60
2022/02/05 08:04:29;;;;;;;11.95;2.60;;;;;;;0.67;100.00;100443.59;7395119;19;20128;-58
2022/02/05 08:06:59;;;;;;;21.15;3.85;;;;;;;0.75;100.00;100442.50;7385032;19;20135;-55
2022/02/05 08:09:41;;;;;;;13.70;1.13;;;;;;;0.67;100.00;100439.38;7395684;19;20127;-58
2022/02/05 08:12:15;;;;;;;7.20;2.67;;;;;;;0.72;100.00;100446.47;7390821;19;20182;-57
2022/02/05 08:14:47;;;;;;;7.18;1.00;;;;;;;0.74;100.00;100452.53;7400105;19;20140;-57
2022/02/05 08:17:23;;;;;;;4.32;0.80;;;;;;;0.77;100.00;100451.13;7392229;19;20188;-57
2022/02/05 08:19:53;;;;;;;6.82;1.10;;;;;;;0.79;100.00;100459.78;7394618;19;20134;-59
2022/02/05 08:22:28;;;;;;;11.55;1.65;;;;;;;0.82;100.00;100460.75;7389453;19;20186;-56
2022/02/05 08:24:57;;;;;;;7.88;1.77;;;;;;;0.86;100.00;100471.25;7395231;19;20150;-56
2022/02/05 08:27:27;;;;;;;6.88;0.80;;;;;;;0.89;100.00;100475.69;7391416;19;20184;-58
2022/02/05 08:29:59;;;;;;;17.15;3.47;;;;;;;0.93;100.00;100478.59;7394236;19;20121;-57
2022/02/05 08:32:32;;;;;;;11.80;1.48;;;;;;;0.96;100.00;100484.69;7392186;19;20190;-59
2022/02/05 08:35:02;;;;;;;6.25;1.20;;;;;;;1.01;100.00;100490.97;7394773;19;20153;-51
2022/02/05 08:37:34;;;;;;;11.63;1.00;;;;;;;1.03;100.00;100490.31;7390955;19;20196;-57
2022/02/05 08:40:03;;;;;;;15.05;1.70;;;;;;;1.06;100.00;100500.75;7391322;19;20133;-58
2022/02/05 08:42:33;;;;;;;3.90;1.20;;;;;;;1.12;100.00;100500.31;7391708;19;20200;-58
2022/02/05 08:45:04;;;;;;;4.15;1.05;;;;;;;1.18;100.00;100510.06;7394290;19;20138;-59
2022/02/05 08:47:36;;;;;;;13.70;1.73;;;;;;;1.20;100.00;100511.97;7388186;19;20197;-58
2022/02/05 08:50:07;;;;;;;10.30;2.58;;;;;;;1.23;100.00;100516.34;7393339;19;20119;-55
2022/02/05 08:52:39;;;;;;;15.87;2.00;;;;;;;1.31;100.00;100517.84;7391367;19;20192;-59
2022/02/05 08:55:10;;;;;;;9.57;2.08;;;;;;;1.37;100.00;100521.63;7393708;19;20462;-56
2022/02/05 08:57:40;;;;;;;12.65;2.70;;;;;;;1.44;100.00;100514.53;7390905;19;20199;-59
2022/02/05 09:00:15;;;;;;;15.98;2.08;;;;;;;1.42;100.00;100526.28;7396333;19;20143;-56
2022/02/05 09:02:54;;;;;;;6.88;1.83;;;;;;;1.35;100.00;100524.03;7390715;19;20192;-58
2022/02/05 09:05:36;;;;;;;11.18;1.95;;;;;;;1.38;100.00;100524.25;7393776;19;20136;-57
2022/02/05 09:08:10;;;;;;;17.35;2.15;;;;;;;1.40;100.00;100532.91;7388807;19;20188;-54
2022/02/05 09:10:53;;;;;;;15.10;1.83;;;;;;;1.46;100.00;100528.28;7392469;19;20169;-54
2022/02/05 09:13:38;;;;;;;5.55;2.33;;;;;;;1.44;100.00;100529.81;7389118;19;20409;-53
2022/02/05 09:16:09;;;;;;;6.82;1.55;;;;;;;1.46;100.00;100542.63;7392981;19;20484;-56
2022/02/05 09:18:43;;;;;;;14.38;2.40;;;;;;;1.69;100.00;100551.97;7390751;19;20196;-59
2022/02/05 09:21:13;;;;;;;15.93;1.70;;;;;;;1.89;100.00;100552.56;7391858;19;20179;-55
2022/02/05 09:23:44;;;;;;;15.73;3.67;;;;;;;2.35;100.00;100541.41;7392924;19;20793;-60
2022/02/05 09:26:15;;;;;;;8.80;2.47;;;;;;;1.74;100.00;100565.94;7393535;19;20410;-60
2022/02/05 09:28:45;;;;;;;13.00;2.67;;;;;;;1.62;100.00;100575.19;7390064;19;20189;-58
2022/02/05 09:31:25;;;;;;;8.60;1.50;;;;;;;1.63;100.00;100576.97;7390153;19;20757;-59
2022/02/05 09:33:57;;;;;;;10.57;3.20;;;;;;;1.97;100.00;100584.56;7389826;19;20203;-57
2022/02/05 09:36:27;;;;;;;11.93;2.43;;;;;;;1.83;100.00;100581.00;7392544;19;20126;-58
2022/02/05 09:38:58;;;;;;;21.50;5.82;;;;;;;2.24;100.00;100572.06;7385451;19;20439;-56
2022/02/05 09:41:28;;;;;;;7.75;2.40;;;;;;;1.81;100.00;100596.91;7391153;19;20500;-57
2022/02/05 09:43:57;;;;;;;13.07;1.75;;;;;;;1.83;100.00;100581.00;7388460;19;20193;-52
2022/02/05 09:46:27;;;;;;;6.50;1.90;;;;;;;1.78;100.00;100571.25;7392234;19;20125;-59
2022/02/05 09:49:01;;;;;;;9.70;2.50;;;;;;;1.80;100.00;100584.97;7388514;19;20443;-54
2022/02/05 09:51:36;;;;;;;7.83;1.67;;;;;;;2.05;100.00;100576.59;7394854;19;20752;-60
2022/02/05 09:54:08;;;;;;;11.77;2.70;;;;;;;2.10;100.00;100585.47;7405067;19;20396;-54
2022/02/05 09:56:39;;;;;;;10.53;2.70;;;;;;;2.24;100.00;100589.91;7400868;19;20390;-56
2022/02/05 09:59:09;;;;;;;15.33;1.87;;;;;;;2.39;100.00;100589.22;7396049;19;20429;-58
2022/02/05 10:01:39;;;;;;;10.03;1.93;;;;;;;2.14;100.00;100588.34;7396668;19;20407;-56
2022/02/05 10:04:12;;;;;;;7.00;1.50;;;;;;;2.43;100.00;100581.03;7397482;19;20435;-58
2022/02/05 10:06:49;;;;;;;13.43;2.23;;;;;;;2.29;100.00;100583.47;7398539;19;20404;-51
2022/02/05 10:09:19;;;;;;;7.03;2.00;;;;;;;2.28;100.00;100599.53;7394053;19;20430;-58
2022/02/05 10:11:51;;;;;;;16.73;2.10;;;;;;;2.37;100.00;100603.53;7396762;19;20437;-54
2022/02/05 10:14:24;;;;;;;16.63;2.30;;;;;;;2.53;100.00;100603.88;7395403;19;20416;-57
2022/02/05 10:16:55;;;;;;;16.53;1.83;;;;;;;2.53;100.00;100608.06;7400354;19;20379;-57
2022/02/05 10:19:46;;;;;;;6.60;1.13;;;;;;;2.45;100.00;100620.22;7394690;19;20460;-53
2022/02/05 10:22:16;;;;;;;9.43;2.07;;;;;;;2.51;100.00;100615.56;7396399;19;20429;-55
2022/02/05 10:24:52;;;;;;;6.40;1.43;;;;;;;2.56;100.00;100615.91;7386575;19;20411;-57
2022/02/05 10:27:29;;;;;;;19.77;1.80;;;;;;;2.60;100.00;100615.34;7389429;19;20421;-60
2022/02/05 10:30:10;;;;;;;6.50;1.73;;;;;;;2.66;100.00;100612.38;7391006;19;20424;-57
2022/02/05 10:32:42;;;;;;;8.10;0.93;;;;;;;2.67;100.00;100614.16;7389399;19;20412;-52
2022/02/05 10:35:32;;;;;;;12.33;1.90;;;;;;;2.72;100.00;100611.91;7384500;19;20425;-57
2022/02/05 10:38:16;;;;;;;12.03;1.63;;;;;;;2.76;100.00;100611.38;7394205;19;20391;-56
2022/02/05 10:40:48;;;;;;;25.43;1.70;;;;;;;2.88;100.00;100621.53;7392782;19;20403;-57
2022/02/05 10:43:31;;;;;;;10.93;2.13;;;;;;;3.02;100.00;100623.38;7386956;19;20407;-58
2022/02/05 10:46:04;;;;;;;10.47;1.73;;;;;;;3.05;100.00;100615.97;7393742;19;20414;-55
2022/02/05 10:48:35;;;;;;;16.53;2.27;;;;;;;2.98;100.00;100613.78;7397522;19;20380;-56
2022/02/05 10:51:07;;;;;;;14.17;3.67;;;;;;;3.09;100.00;100628.13;7388693;19;20411;-59
2022/02/05 10:53:42;;;;;;;4.37;1.17;;;;;;;3.13;100.00;100629.22;7386669;19;20421;-55
2022/02/05 10:56:16;;;;;;;8.40;1.40;;;;;;;3.14;100.00;100635.22;7381234;19;20422;-56
2022/02/05 11:07:04;;;;;;;7.67;2.03;;;;;;;3.37;100.00;100645.38;7397301;19;20741;-52
2022/02/05 11:09:34;;;;;;;8.57;1.77;;;;;;;3.48;100.00;100641.00;7386694;19;20973;-54
2022/02/05 11:20:15;;;;;;;6.47;1.40;;;;;;;3.57;100.00;100645.84;7391465;19;20418;-56
2022/02/05 11:22:50;;;;;;;13.17;2.33;;;;;;;3.53;100.00;100646.41;7396918;19;20395;-58
2022/02/05 11:25:21;;;;;;;7.03;1.63;;;;;;;3.61;100.00;100665.69;7393595;19;20801;-52
2022/02/05 11:27:55;;;;;;;13.00;1.90;;;;;;;3.64;100.00;100650.56;7397019;19;20405;-52
2022/02/05 11:30:42;;;;;;;17.07;2.40;;;;;;;3.62;100.00;100647.03;7391875;19;20423;-56
2022/02/05 11:33:24;;;;;;;4.23;1.43;;;;;;;3.57;100.00;100653.50;7401088;19;20467;-58
2022/02/05 11:36:39;;;;;;;7.67;2.10;;;;;;;3.48;100.00;100663.06;7396409;19;20395;-56
2022/02/05 11:39:05;;;;;;;16.20;2.10;;;;;;;3.38;100.00;100664.09;7395963;19;20384;-51
2022/02/05 11:41:36;;;;;;;4.03;0.90;;;;;;;3.35;100.00;100659.66;7395268;19;20404;-52
2022/02/05 11:44:30;;;;;;;9.63;2.10;;;;;;;3.36;100.00;100658.91;7392488;19;20414;-54
2022/02/05 11:47:29;;;;;;;10.53;1.90;;;;;;;3.37;100.00;100653.00;7395739;19;20388;-59
2022/02/05 11:50:17;;;;;;;11.57;1.30;;;;;;;3.33;100.00;100658.66;7389412;19;20429;-53
2022/02/05 11:53:10;;;;;;;8.70;1.93;;;;;;;3.34;100.00;100669.78;7395967;19;20388;-49
2022/02/05 11:55:47;;;;;;;17.87;2.33;;;;;;;3.37;100.00;100650.47;7395529;19;20453;-55
2022/02/05 11:58:17;;;;;;;13.20;1.90;;;;;;;3.39;100.00;100645.47;7397710;19;20400;-58
2022/02/05 12:00:57;;;;;;;11.37;1.30;;;;;;;3.36;100.00;100666.56;7390533;19;20824;-55
2022/02/05 12:03:37;;;;;;;8.77;1.13;;;;;;;3.37;100.00;100649.56;7395483;19;20380;-54
2022/02/05 12:06:12;;;;;;;12.10;1.00;;;;;;;3.48;100.00;100648.66;7390378;19;20412;-57
2022/02/05 12:08:46;;;;;;;5.67;1.43;;;;;;;3.52;100.00;100654.84;7395610;19;20387;-57
2022/02/05 12:11:35;;;;;;;5.47;2.30;;;;;;;3.59;100.00;100654.47;7391902;19;20421;-50
2022/02/05 12:14:13;;;;;;;11.50;2.43;;;;;;;3.81;100.00;100652.50;7394294;19;20419;-51
2022/02/05 12:17:07;;;;;;;7.80;1.87;;;;;;;3.81;100.00;100658.50;7395154;19;20379;-57
2022/02/05 12:20:04;;;;;;;13.97;2.50;;;;;;;3.93;100.00;100655.88;7391718;19;20423;-56
2022/02/05 12:23:07;;;;;;;7.07;1.50;;;;;;;3.82;100.00;100647.50;7395221;19;20913;-52
2022/02/05 12:26:12;;;;;;;7.00;1.30;;;;;;;3.76;100.00;100657.31;7391446;19;20410;-55
2022/02/05 12:28:45;;;;;;;7.43;2.10;;;;;;;4.18;100.00;100658.41;7394632;19;20387;-51
2022/02/05 12:31:36;;;;;;;5.10;1.57;;;;;;;4.10;100.00;100656.13;7391612;19;20411;-47
2022/02/05 12:34:11;;;;;;;6.40;1.53;;;;;;;3.70;100.00;100654.34;7392147;19;20403;-56
2022/02/05 12:36:44;;;;;;;15.40;2.60;;;;;;;3.91;100.00;100670.22;7394510;19;20384;-57
2022/02/05 12:39:20;;;;;;;16.60;2.60;;;;;;;3.87;100.00;100663.13;7391529;19;20419;-52
2022/02/05 12:41:51;;;;;;;8.70;1.47;;;;;;;3.78;100.00;100673.59;7392616;19;20414;-54
2022/02/05 12:44:25;;;;;;;11.67;2.80;;;;;;;4.19;100.00;100656.72;7390648;19;20419;-53
2022/02/05 12:47:01;;;;;;;19.77;2.13;;;;;;;3.80;100.00;100677.16;7394134;19;20371;-50
2022/02/05 12:49:37;;;;;;;8.83;2.50;;;;;;;3.84;100.00;100668.03;7387344;19;20407;-59
2022/02/05 12:52:08;;;;;;;14.07;3.93;;;;;;;3.74;100.00;100667.41;7392363;19;20497;-56
2022/02/05 12:54:37;;;;;;;8.07;1.57;;;;;;;3.84;100.00;100651.03;7390688;19;20422;-55
2022/02/05 12:57:07;;;;;;;37.47;8.30;;;;;;;3.84;100.00;100656.13;7393408;19;20408;-52
2022/02/05 12:59:39;;;;;;;10.80;3.83;;;;;;;4.11;100.00;100638.31;7393545;19;20422;-53
2022/02/05 13:02:10;;;;;;;14.13;3.03;;;;;;;4.12;100.00;100647.78;7391974;19;20419;-52
2022/02/05 13:04:41;;;;;;;14.03;2.00;;;;;;;4.05;100.00;100643.94;7389234;19;20419;-51
2022/02/05 13:07:13;;;;;;;10.37;2.20;;;;;;;4.01;100.00;100643.63;7393344;19;20406;-54
2022/02/05 13:09:48;;;;;;;7.23;1.23;;;;;;;3.98;100.00;100646.88;7388210;19;20408;-57
2022/02/05 13:12:22;;;;;;;5.90;1.13;;;;;;;3.89;100.00;100651.34;7391824;19;20411;-54
2022/02/05 13:14:59;;;;;;;3.97;1.40;;;;;;;4.08;100.00;100638.16;7384559;19;20422;-56
2022/02/05 13:17:36;;;;;;;13.43;2.40;;;;;;;4.25;100.00;100635.81;7393748;19;20462;-55
2022/02/05 13:26:04;;;;;;;34.27;11.23;;;;;;;4.28;100.00;100625.78;7391400;19;20916;-54
2022/02/05 13:28:42;;;;;;;48.67;16.00;;;;;;;4.33;100.00;100630.41;7396955;19;20463;-54
2022/02/05 13:34:08;;;;;;;28.23;6.50;;;;;;;4.51;100.00;100640.03;7394290;19;20386;-53
2022/02/05 13:36:54;;;;;;;32.47;9.33;;;;;;;4.77;100.00;100642.50;7395797;19;20388;-57
2022/02/05 13:39:48;;;;;;;21.20;5.37;;;;;;;4.91;100.00;100641.69;7392781;19;20443;-58
2022/02/05 13:42:21;;;;;;;16.70;5.70;;;;;;;4.85;100.00;100651.53;7394678;19;20427;-51
2022/02/05 13:57:37;;;;;;;11.23;2.60;;;;;;;4.63;100.00;100645.09;7278503;19;2923373;-50
2022/02/05 14:00:07;;;;;;;12.07;1.90;;;;;;;4.66;100.00;100644.41;7428456;19;20181;-56
2022/02/05 14:02:40;;;;;;;8.53;1.97;;;;;;;4.61;100.00;100650.88;7432634;19;20946;-58